Terminal Aerodrome Forecast
Issued by NWS

Home | Current Version | Previous Version | Text Only | Print | Product List | Glossary On
Versions: 1 2 3 4 5 6 7 8 9 10 11 12
823
FTUS46 KMTR 221725
TAFOAK
TAF
KOAK 221725Z 2218/2324 28005KT P6SM FEW200
     FM222100 29013KT P6SM FEW250
     FM230400 30008KT P6SM SCT250
     FM231000 02005KT P6SM SCT250
     FM231400 VRB04KT P6SM SCT250
     FM232100 30008KT P6SM FEW250=

USA.gov is the U.S. government's official web portal to all federal, state and local government web resources and services.